Lima, OH (45806)

11:24 PM EDT on September 02, 2014 (GMT -0400)
West side Lima OH | Change Station
CLOSE
Current Station
Personal Weather Station
Location: Lima, OH
Elevation: 870 ft
Nearby Weather Stations

Elev 870 ft 40.75 °N, 84.13 °W | Updated 3 minutes ago

Mostly Cloudy
Mostly Cloudy
69.3 °F
Feels Like 69.3 °F
N
0.0
Wind Variable Wind from SW
Gusts 0.0 mph

Today
High -- | Low -- °F
--% Chance of Precip.
Yesterday
High -- | Low -- °F
Precip. -- in
7:04 AM 8:07 PM
First Quarter, 58% visible
Pressure 29.95 in
Visibility 9.0 miles
Clouds Few 2400 ft
Mostly Cloudy 3700 ft
Mostly Cloudy 6000 ft
Dew Point 67 °F
Humidity 91%
Rainfall 0.00 in
Snow Depth Not available.
UV 0 out of 12
Pollen 2.80 out of 12
Air Quality Not available.
Flu Activity Not available.
METAR KAOH 030153Z AUTO 00000KT 9SM FEW024 BKN037 BKN060 22/19 A2997 RMK AO2 SLP141 T02170189

More Conditions Fewer Conditions

Pressure 29.95 in
Visibility 9.0 miles
Clouds Few 2400 ft
Mostly Cloudy 3700 ft
Mostly Cloudy 6000 ft
Dew Point 67 °F
Humidity 91%
Rainfall 0.00 in
Snow Depth Not available.
UV 0 out of 12
Pollen 2.80 out of 12
Air Quality Not available.
Flu Activity Not available.
METAR KAOH 030153Z AUTO 00000KT 9SM FEW024 BKN037 BKN060 22/19 A2997 RMK AO2 SLP141 T02170189

More Conditions Fewer Conditions

10-Day Weather Forecast

Almanac

Astronomy

Sep. 02, 2014 Rise Set
Actual Time 7:04 AM EDT 8:07 PM EDT
Civil Twilight 6:36 AM EDT 8:35 PM EDT
Nautical Twilight 6:03 AM EDT 9:08 PM EDT
Astronomical Twilight 5:28 AM EDT 9:43 PM EDT
Moon 2:50 PM EDT (9/2) 12:06 AM EDT (9/2)
Length of Visible Light 13h 58m
Length of Day
13h 02m
Tomorrow will be 2m 35s shorter.
First Quarter, 58% of the Moon is Illuminated
Today
First Quarter
Sep 8
Full
Sep 15
Last Quarter
Sep 24
New
Oct 1
First Quarter

Today's Extremes

State Highs State Lows

Community

WunderPhotos

Upload Photos

1,749,865 photos uploaded!

Nearby

Snow Depth

Station Depth Elevation
No new snow has been reported.

Earthquake Activity

City Distance Mag. Time & Date
No recent earthquake activity has been reported nearby.
Minimum magnitude displayed is 2.5.

Coastal Water Temperatures

Place Temperature
No Stations Reporting

Nearby Weather Stations